Concord Municipal Airport Concord US
ICAO: KCON
IATA: CON
Category: Medium
Scheduled Services: No

Elevation: 342 ft
TransAlt. 18000 ft.

Airport Communications:
BOSTON APP/DEP:127.35
ASOS:132.32
CLNC DEL:133.65
ARNG OPS:32.1
BANGOR RDO:122.3
CTAF/UNICOM:122.7

KCON Zoom In..

If you have problems with the map follow the link
https://www.worldairports.se/pages/airport.php?
ICAO=KCON

Runways:

(A) RW 12 length 3200 ft width 75 ft
---- / hdg 121

(B) RW 17 length 6005 ft width 100 ft
---- / hdg 171

(C) RW 30 length 3200 ft width 75 ft
---- / hdg 301

(D) RW 35 length 6005 ft width 100 ft
ILS 108.70 / hdg 351

Location; KCON
Day. 14 / Time. 16.17 Zulu
* Altimeter: 29.42
* Temperature: 08° c. 46.4°f.
* Wind from: 010° Speed 08 kn.
Dewpoint: 07° c.
Visibility: 1 m.
Clouds: Overcast 600 ft.
Conditions: Mist.

KCON 141617Z AUTO 01008KT 1 1/2SM BR OVC006 08/07 A2942 RMK AO2 RAE17 P0002 T00830072


Wind From 010°
Speed 08 kn.

 
 
jpsmedia worldairports.se 2019   terms of use